Time;durP1;ratioP1;P1;durP2;ratioP2;P2;SDS_P1;SDS_P2;PMS_P1;PMS_P2;Temp;Humidity;BMP_temperature;BMP_pressure;BME280_temperature;BME280_humidity;BME280_pressure;Samples;Min_cycle;Max_cycle;Signal;HPM_P1;HPM_P2
2022/06/07 00:02:09;;;;;;;0.70;0.70;;;11.80;99.90;;;;;;5155451;27;20224;-70
2022/06/07 00:04:35;;;;;;;0.65;0.65;;;11.80;99.90;;;;;;5137012;27;20186;-70
2022/06/07 00:07:01;;;;;;;0.75;0.75;;;11.70;99.90;;;;;;5155655;27;20209;-70
2022/06/07 00:09:27;;;;;;;0.57;0.57;;;11.70;99.90;;;;;;5155360;27;20194;-70
2022/06/07 00:11:53;;;;;;;0.65;0.65;;;11.60;99.90;;;;;;5156029;27;20190;-70
2022/06/07 00:14:19;;;;;;;0.60;0.60;;;11.60;99.90;;;;;;5136744;27;20205;-71
2022/06/07 00:16:45;;;;;;;1.60;1.23;;;11.50;99.90;;;;;;5155490;27;20201;-71
2022/06/07 00:19:11;;;;;;;0.50;0.50;;;11.50;99.90;;;;;;5136594;27;20569;-70
2022/06/07 00:21:37;;;;;;;0.75;0.75;;;11.50;99.90;;;;;;5155133;27;20197;-71
2022/06/07 00:24:04;;;;;;;0.50;0.50;;;11.40;99.90;;;;;;5136779;27;20190;-71
2022/06/07 00:26:32;;;;;;;0.60;0.60;;;11.40;99.90;;;;;;5136354;27;20190;-70
2022/06/07 00:28:59;;;;;;;0.60;0.60;;;11.30;99.90;;;;;;5155059;27;20280;-70
2022/06/07 00:31:26;;;;;;;0.50;0.50;;;11.30;99.90;;;;;;5136426;27;20202;-70
2022/06/07 00:33:52;;;;;;;0.60;0.60;;;11.20;99.90;;;;;;5155203;27;20231;-70
2022/06/07 00:36:18;;;;;;;0.68;0.68;;;11.20;99.90;;;;;;5154966;27;20194;-70
2022/06/07 00:38:45;;;;;;;0.50;0.50;;;11.10;99.90;;;;;;5154969;27;20263;-70
2022/06/07 00:41:12;;;;;;;0.60;0.60;;;11.10;99.90;;;;;;5154685;27;20183;-70
2022/06/07 00:43:38;;;;;;;0.50;0.50;;;11.00;99.90;;;;;;5154795;27;20182;-70
2022/06/07 00:46:11;;;;;;;0.40;0.40;;;11.00;99.90;;;;;;5154521;27;20217;-71
2022/06/07 00:48:38;;;;;;;0.80;0.80;;;10.90;99.90;;;;;;5154301;27;20531;-71
2022/06/07 00:51:12;;;;;;;0.90;0.90;;;11.00;99.90;;;;;;5154772;27;20194;-71
2022/06/07 00:53:37;;;;;;;0.60;0.60;;;11.00;99.90;;;;;;5154681;27;20231;-70
2022/06/07 00:56:05;;;;;;;1.08;1.02;;;11.00;99.90;;;;;;5154738;27;20186;-70
2022/06/07 00:58:32;;;;;;;0.70;0.70;;;10.90;99.90;;;;;;5154537;27;20636;-70
2022/06/07 01:00:59;;;;;;;0.60;0.60;;;11.00;99.90;;;;;;5154484;27;20197;-70
2022/06/07 01:03:25;;;;;;;0.52;0.52;;;11.00;99.90;;;;;;5135976;27;20656;-70
2022/06/07 01:05:52;;;;;;;0.50;0.50;;;11.00;99.90;;;;;;5154292;27;20194;-70
2022/06/07 01:11:03;;;;;;;0.55;0.55;;;11.10;99.90;;;;;;5155088;27;20285;-70
2022/06/07 01:13:32;;;;;;;0.52;0.52;;;11.20;99.90;;;;;;5135698;27;20194;-70
2022/06/07 01:16:04;;;;;;;6.53;1.50;;;11.30;99.90;;;;;;5144181;27;20187;-70
2022/06/07 01:18:34;;;;;;;0.70;0.70;;;11.30;99.90;;;;;;5115171;27;20198;-70
2022/06/07 01:21:21;;;;;;;0.70;0.70;;;11.30;99.90;;;;;;5133630;27;20279;-70
2022/06/07 01:23:48;;;;;;;0.60;0.60;;;11.30;99.90;;;;;;5133748;27;20239;-70
2022/06/07 01:26:14;;;;;;;0.43;0.43;;;11.30;99.90;;;;;;5133482;28;20183;-70
2022/06/07 01:28:40;;;;;;;0.70;0.70;;;11.40;99.90;;;;;;5133410;28;20186;-70
2022/06/07 01:31:06;;;;;;;0.75;0.75;;;11.30;99.90;;;;;;5115960;27;20683;-70
2022/06/07 01:33:32;;;;;;;0.60;0.60;;;11.30;99.90;;;;;;5137755;27;20183;-71
2022/06/07 01:36:08;;;;;;;0.73;0.73;;;11.30;99.90;;;;;;5119315;27;20235;-71
2022/06/07 01:38:36;;;;;;;0.50;0.50;;;11.30;99.90;;;;;;5137500;27;20270;-71
2022/06/07 01:43:47;;;;;;;0.73;0.73;;;11.20;99.90;;;;;;5155448;27;20678;-70
2022/06/07 01:46:13;;;;;;;0.82;0.82;;;11.20;99.90;;;;;;5158177;27;20202;-72
2022/06/07 01:48:39;;;;;;;0.60;0.60;;;11.10;99.90;;;;;;5137109;27;20202;-71
2022/06/07 01:51:07;;;;;;;0.60;0.60;;;11.20;99.90;;;;;;5137432;27;20653;-71
2022/06/07 01:53:34;;;;;;;0.60;0.60;;;11.10;99.90;;;;;;5137366;27;20502;-71
2022/06/07 01:56:07;;;;;;;0.60;0.60;;;11.20;99.90;;;;;;5118914;27;20199;-71
2022/06/07 01:58:33;;;;;;;0.77;0.77;;;11.20;99.90;;;;;;5118767;27;20190;-70
2022/06/07 02:00:59;;;;;;;0.60;0.60;;;11.20;99.90;;;;;;5143590;27;20190;-70
2022/06/07 02:03:25;;;;;;;0.80;0.80;;;11.20;99.90;;;;;;5157586;27;20220;-70
2022/06/07 02:06:02;;;;;;;0.60;0.60;;;11.30;99.90;;;;;;5157998;27;20193;-70
2022/06/07 02:08:29;;;;;;;1.10;1.05;;;11.30;99.90;;;;;;5139029;27;20247;-70
2022/06/07 02:10:55;;;;;;;0.55;0.55;;;11.40;99.90;;;;;;5157859;27;20198;-70
2022/06/07 02:13:22;;;;;;;0.60;0.60;;;11.40;99.90;;;;;;5138928;27;20542;-70
2022/06/07 02:15:48;;;;;;;0.60;0.60;;;11.40;99.90;;;;;;5157844;27;20190;-70
2022/06/07 02:18:15;;;;;;;0.60;0.60;;;11.40;99.90;;;;;;5157756;27;20201;-70
2022/06/07 02:20:42;;;;;;;0.73;0.73;;;11.50;99.90;;;;;;5138904;27;20270;-70
2022/06/07 02:23:10;;;;;;;0.90;0.90;;;11.50;99.90;;;;;;5139028;27;20350;-69
2022/06/07 02:25:41;;;;;;;0.50;0.50;;;11.60;99.90;;;;;;5157471;27;20761;-69
2022/06/07 02:28:10;;;;;;;1.63;1.08;;;11.60;99.90;;;;;;5139025;27;20194;-70
2022/06/07 02:30:37;;;;;;;0.60;0.60;;;11.70;99.90;;;;;;5157427;27;20261;-73
2022/06/07 02:33:03;;;;;;;0.57;0.57;;;11.70;99.90;;;;;;5139012;27;20194;-70
2022/06/07 02:35:31;;;;;;;0.63;0.63;;;11.70;99.90;;;;;;5138694;27;20205;-70
2022/06/07 02:37:56;;;;;;;0.82;0.82;;;11.80;99.90;;;;;;5138723;27;20198;-71
2022/06/07 02:40:23;;;;;;;0.52;0.52;;;11.80;99.90;;;;;;5159111;27;20542;-70
2022/06/07 02:42:48;;;;;;;0.68;0.68;;;11.80;99.90;;;;;;5161521;27;20218;-71
2022/06/07 02:45:17;;;;;;;0.68;0.68;;;11.80;99.90;;;;;;5157351;27;20194;-71
2022/06/07 02:47:43;;;;;;;0.50;0.50;;;11.80;99.90;;;;;;5157083;27;20233;-69
2022/06/07 02:50:10;;;;;;;0.60;0.60;;;11.80;99.90;;;;;;5138241;27;20664;-71
2022/06/07 02:52:36;;;;;;;0.50;0.50;;;11.90;99.90;;;;;;5138328;27;20720;-69
2022/06/07 02:55:03;;;;;;;0.82;0.82;;;11.90;99.90;;;;;;5157126;27;20194;-70
2022/06/07 02:57:29;;;;;;;0.70;0.70;;;12.00;99.90;;;;;;5138317;27;20606;-70
2022/06/07 02:59:54;;;;;;;0.73;0.73;;;12.00;99.90;;;;;;5156899;27;20194;-69
2022/06/07 03:02:20;;;;;;;0.88;0.88;;;12.10;99.90;;;;;;5146788;27;20233;-70
2022/06/07 03:04:46;;;;;;;0.40;0.40;;;12.10;99.90;;;;;;5136550;27;20195;-70
2022/06/07 03:07:12;;;;;;;0.80;0.80;;;12.10;99.90;;;;;;5136209;27;20648;-70
2022/06/07 03:09:38;;;;;;;0.85;0.85;;;12.10;99.90;;;;;;5135871;27;20198;-70
2022/06/07 03:12:05;;;;;;;0.70;0.70;;;12.10;99.90;;;;;;5135993;27;20195;-70
2022/06/07 03:14:31;;;;;;;0.98;0.65;;;12.20;99.90;;;;;;5135810;27;20190;-71
2022/06/07 03:16:57;;;;;;;0.75;0.75;;;12.10;99.90;;;;;;5135967;27;20191;-70
2022/06/07 03:19:23;;;;;;;0.95;0.80;;;12.10;99.90;;;;;;5135780;27;20198;-70
2022/06/07 03:21:48;;;;;;;0.82;0.82;;;12.00;99.90;;;;;;5117276;27;20203;-70
2022/06/07 03:24:14;;;;;;;0.82;0.70;;;12.00;99.90;;;;;;5117252;27;20221;-70
2022/06/07 03:26:40;;;;;;;0.60;0.60;;;11.90;99.90;;;;;;5117170;27;20194;-70
2022/06/07 03:29:06;;;;;;;2.47;0.75;;;11.90;99.90;;;;;;5117174;27;20202;-71
2022/06/07 03:31:31;;;;;;;1.65;1.02;;;11.90;99.90;;;;;;5135536;27;20198;-71
2022/06/07 03:33:57;;;;;;;0.50;0.50;;;11.90;99.90;;;;;;5135650;27;20229;-71
2022/06/07 03:36:28;;;;;;;1.02;1.02;;;11.90;99.90;;;;;;5154017;27;20202;-71
2022/06/07 03:38:57;;;;;;;0.60;0.60;;;11.90;99.90;;;;;;5137418;27;20210;-71
2022/06/07 03:41:26;;;;;;;0.55;0.55;;;11.90;99.90;;;;;;5137002;27;20201;-71
2022/06/07 03:43:52;;;;;;;0.50;0.50;;;11.90;99.90;;;;;;5156099;27;20186;-70
2022/06/07 03:46:22;;;;;;;0.50;0.50;;;11.90;99.90;;;;;;5155953;27;20272;-70
2022/06/07 03:48:48;;;;;;;1.33;0.68;;;11.90;99.90;;;;;;5133705;27;20224;-71
2022/06/07 03:51:17;;;;;;;0.60;0.60;;;12.00;99.90;;;;;;5135200;27;20236;-71
2022/06/07 03:53:43;;;;;;;0.50;0.50;;;12.00;99.90;;;;;;5134571;27;20256;-71
2022/06/07 03:56:09;;;;;;;0.60;0.60;;;12.10;99.90;;;;;;5152536;27;20189;-71
2022/06/07 03:58:38;;;;;;;0.93;0.93;;;12.20;99.90;;;;;;5137054;27;20273;-70
2022/06/07 04:01:06;;;;;;;0.77;0.77;;;12.20;99.90;;;;;;5155699;27;20554;-71
2022/06/07 04:03:32;;;;;;;0.50;0.50;;;12.30;99.90;;;;;;5155386;27;20608;-71
2022/06/07 04:05:59;;;;;;;0.93;0.80;;;12.40;99.90;;;;;;5116535;27;20190;-71
2022/06/07 04:08:28;;;;;;;0.75;0.75;;;12.50;99.90;;;;;;5134648;27;20195;-71
2022/06/07 04:11:01;;;;;;;0.70;0.70;;;12.70;99.90;;;;;;5135104;27;20509;-71
2022/06/07 04:13:29;;;;;;;0.75;0.75;;;12.80;99.90;;;;;;5134663;27;20198;-72
2022/06/07 04:15:55;;;;;;;0.50;0.50;;;12.80;99.90;;;;;;5116364;27;20709;-72
2022/06/07 04:18:21;;;;;;;0.50;0.50;;;12.80;99.90;;;;;;5134488;27;20290;-71
2022/06/07 04:20:47;;;;;;;0.60;0.60;;;12.80;99.90;;;;;;5134705;27;20516;-72
2022/06/07 04:23:18;;;;;;;9.18;0.77;;;12.80;99.90;;;;;;5116073;27;20297;-71
2022/06/07 04:25:45;;;;;;;0.50;0.50;;;12.80;99.90;;;;;;5134849;27;20190;-71
2022/06/07 04:28:11;;;;;;;0.40;0.40;;;12.80;99.90;;;;;;5115977;27;20194;-71
2022/06/07 04:30:37;;;;;;;0.60;0.60;;;12.90;99.90;;;;;;5135504;27;20190;-71
2022/06/07 04:33:03;;;;;;;0.40;0.40;;;12.80;99.90;;;;;;5155143;27;20197;-71
2022/06/07 04:35:29;;;;;;;2.05;1.42;;;12.80;99.90;;;;;;5154781;27;20210;-71
2022/06/07 04:37:55;;;;;;;0.73;0.73;;;12.90;99.90;;;;;;5136462;27;20209;-71
2022/06/07 04:40:21;;;;;;;0.60;0.60;;;13.00;99.90;;;;;;5154666;27;20182;-72
2022/06/07 04:42:47;;;;;;;0.65;0.60;;;13.10;99.90;;;;;;5136181;27;20672;-72
2022/06/07 04:45:15;;;;;;;0.73;0.70;;;13.30;99.90;;;;;;5154984;27;20186;-71
2022/06/07 04:47:46;;;;;;;0.63;0.63;;;13.50;99.90;;;;;;5136306;27;20198;-72
2022/06/07 04:50:15;;;;;;;0.68;0.68;;;13.70;99.90;;;;;;5120757;27;20723;-72
2022/06/07 04:52:43;;;;;;;0.50;0.50;;;14.00;99.90;;;;;;5135775;27;20311;-71
2022/06/07 04:55:10;;;;;;;0.50;0.50;;;14.20;99.90;;;;;;5154850;27;20194;-72
2022/06/07 04:57:35;;;;;;;0.40;0.40;;;14.40;99.90;;;;;;5154713;27;20285;-72
2022/06/07 05:00:02;;;;;;;0.57;0.57;;;14.40;99.90;;;;;;5154649;27;20225;-72
2022/06/07 05:02:28;;;;;;;0.57;0.57;;;14.50;99.90;;;;;;5154260;27;20206;-72
2022/06/07 05:04:54;;;;;;;0.77;0.77;;;14.40;99.90;;;;;;5154588;27;20186;-72
2022/06/07 05:07:19;;;;;;;0.40;0.40;;;14.40;99.90;;;;;;5135134;27;20607;-71
2022/06/07 05:09:48;;;;;;;0.50;0.50;;;14.40;99.90;;;;;;5154502;27;20209;-71
2022/06/07 05:12:14;;;;;;;0.73;0.73;;;14.50;99.90;;;;;;5135839;27;20205;-71
2022/06/07 05:14:41;;;;;;;0.38;0.38;;;14.60;99.90;;;;;;5135806;27;20695;-71
2022/06/07 05:17:06;;;;;;;0.70;0.70;;;14.60;99.90;;;;;;5154490;27;20190;-71
2022/06/07 05:19:33;;;;;;;0.40;0.40;;;14.60;99.90;;;;;;5135745;27;20719;-72
2022/06/07 05:22:01;;;;;;;0.40;0.40;;;14.70;99.90;;;;;;5135735;27;20213;-72
2022/06/07 05:24:27;;;;;;;0.52;0.52;;;14.70;99.90;;;;;;5154222;27;20207;-71
2022/06/07 05:27:01;;;;;;;0.82;0.82;;;14.80;99.90;;;;;;5135677;27;20213;-72
2022/06/07 05:29:43;;;;;;;0.47;0.47;;;14.80;99.90;;;;;;5154334;27;20197;-72
2022/06/07 05:32:09;;;;;;;0.60;0.60;;;14.90;99.90;;;;;;5133591;28;20281;-72
2022/06/07 05:34:34;;;;;;;0.65;0.65;;;14.90;99.90;;;;;;5133465;28;20278;-72
2022/06/07 05:37:00;;;;;;;0.40;0.40;;;14.90;99.90;;;;;;5133639;28;20187;-72
2022/06/07 05:39:28;;;;;;;0.40;0.40;;;14.80;99.90;;;;;;5133449;28;20194;-72
2022/06/07 05:41:55;;;;;;;0.50;0.50;;;14.80;99.90;;;;;;5114925;28;20222;-71
2022/06/07 05:44:22;;;;;;;0.50;0.50;;;14.70;99.90;;;;;;5114871;28;20561;-72
2022/06/07 05:46:49;;;;;;;0.50;0.50;;;14.70;99.90;;;;;;5135502;27;20657;-72
2022/06/07 05:49:16;;;;;;;0.55;0.55;;;14.70;99.90;;;;;;5128256;28;20606;-72
2022/06/07 05:51:42;;;;;;;0.40;0.40;;;14.80;99.90;;;;;;5114849;27;20537;-72
2022/06/07 05:54:09;;;;;;;0.60;0.60;;;14.80;99.90;;;;;;5133486;28;20193;-72
2022/06/07 05:56:35;;;;;;;0.50;0.50;;;14.80;99.90;;;;;;5133211;27;20528;-72
2022/06/07 05:59:00;;;;;;;0.40;0.40;;;14.80;99.90;;;;;;5133569;28;20193;-71
2022/06/07 06:01:27;;;;;;;0.60;0.60;;;14.90;99.90;;;;;;5114591;28;20725;-72
2022/06/07 06:03:55;;;;;;;0.40;0.40;;;15.00;99.90;;;;;;5133516;28;20187;-72
2022/06/07 06:06:21;;;;;;;0.60;0.60;;;15.10;99.90;;;;;;5133197;28;20191;-72
2022/06/07 06:11:32;;;;;;;0.50;0.50;;;15.20;99.90;;;;;;5133849;28;20201;-72
2022/06/07 06:13:58;;;;;;;0.63;0.63;;;15.30;99.90;;;;;;5114918;28;20203;-72
2022/06/07 06:16:25;;;;;;;0.40;0.40;;;15.40;99.90;;;;;;5133026;27;20195;-72
2022/06/07 06:18:56;;;;;;;0.60;0.60;;;15.50;99.90;;;;;;5136876;27;20186;-72
2022/06/07 06:21:25;;;;;;;0.40;0.40;;;15.50;99.90;;;;;;5136771;27;20245;-71
2022/06/07 06:23:51;;;;;;;0.40;0.40;;;15.50;99.90;;;;;;5144602;27;20209;-72
2022/06/07 06:26:19;;;;;;;0.65;0.65;;;15.60;99.90;;;;;;5157586;27;20198;-72
2022/06/07 06:28:45;;;;;;;0.65;0.50;;;15.60;99.90;;;;;;5157787;27;20202;-72
2022/06/07 06:31:12;;;;;;;0.40;0.40;;;15.50;99.90;;;;;;5157691;27;20200;-72
2022/06/07 06:33:40;;;;;;;0.38;0.38;;;15.60;99.90;;;;;;5138969;27;20631;-72
2022/06/07 06:36:08;;;;;;;0.50;0.40;;;15.60;99.90;;;;;;5138922;27;20205;-72
2022/06/07 06:38:34;;;;;;;0.82;0.80;;;15.60;99.90;;;;;;5157610;27;20659;-71
2022/06/07 06:41:08;;;;;;;1.23;0.98;;;15.40;99.90;;;;;;5157409;27;20190;-71
2022/06/07 06:43:33;;;;;;;0.50;0.50;;;15.30;99.90;;;;;;5157041;27;20603;-71
2022/06/07 06:46:17;;;;;;;0.40;0.40;;;15.10;99.90;;;;;;5157421;27;20272;-72
2022/06/07 06:48:44;;;;;;;0.63;0.63;;;15.00;99.90;;;;;;5154201;27;20270;-71
2022/06/07 06:51:13;;;;;;;0.60;0.60;;;14.90;99.90;;;;;;5136472;27;20191;-71
2022/06/07 06:53:42;;;;;;;0.60;0.60;;;14.80;99.90;;;;;;5136309;27;20686;-72
2022/06/07 06:56:10;;;;;;;0.65;0.65;;;14.70;99.90;;;;;;5136446;27;20183;-72
2022/06/07 06:58:36;;;;;;;0.40;0.40;;;14.60;99.90;;;;;;5136261;27;20190;-71
2022/06/07 07:01:05;;;;;;;0.50;0.45;;;14.50;99.90;;;;;;5117823;27;20198;-72
2022/06/07 07:03:33;;;;;;;0.40;0.40;;;14.50;99.90;;;;;;5136395;27;20605;-72
2022/06/07 07:06:04;;;;;;;0.77;0.77;;;14.60;99.90;;;;;;5117931;27;20648;-71
2022/06/07 07:08:30;;;;;;;0.80;0.80;;;14.60;99.90;;;;;;5117563;27;20191;-72
2022/06/07 07:11:12;;;;;;;0.45;0.45;;;14.70;99.90;;;;;;5136446;27;20195;-71
2022/06/07 07:13:39;;;;;;;0.60;0.50;;;14.80;99.90;;;;;;5117598;27;20217;-72
2022/06/07 07:16:12;;;;;;;0.70;0.70;;;14.90;99.90;;;;;;5136052;27;20240;-72
2022/06/07 07:18:39;;;;;;;1.27;0.82;;;15.00;99.90;;;;;;5135935;27;20270;-72
2022/06/07 07:21:15;;;;;;;0.50;0.50;;;15.10;99.90;;;;;;5151792;27;20189;-71
2022/06/07 07:23:40;;;;;;;0.38;0.38;;;15.30;99.90;;;;;;5156431;27;20258;-71
2022/06/07 07:26:12;;;;;;;0.40;0.40;;;15.30;99.90;;;;;;5138038;27;20198;-71
2022/06/07 07:28:40;;;;;;;0.90;0.90;;;15.30;99.90;;;;;;5136893;27;20190;-71
2022/06/07 07:31:10;;;;;;;0.50;0.50;;;15.40;99.90;;;;;;5156524;27;20352;-71
2022/06/07 07:33:36;;;;;;;4.78;1.55;;;15.40;99.90;;;;;;5137739;27;20288;-71
2022/06/07 07:36:04;;;;;;;1.02;0.70;;;15.30;99.90;;;;;;5156429;27;20190;-71
2022/06/07 07:38:30;;;;;;;0.30;0.30;;;15.30;99.90;;;;;;5156149;27;20205;-71
2022/06/07 07:40:55;;;;;;;0.40;0.40;;;15.40;99.90;;;;;;5156121;27;20206;-72
2022/06/07 07:43:21;;;;;;;0.40;0.40;;;15.40;99.90;;;;;;5155865;27;20245;-72
2022/06/07 07:45:54;;;;;;;0.68;0.68;;;15.40;99.90;;;;;;5156322;27;20194;-72
2022/06/07 07:48:21;;;;;;;1.13;0.77;;;15.40;99.90;;;;;;5137248;27;20276;-72
2022/06/07 07:50:48;;;;;;;0.50;0.50;;;15.50;99.90;;;;;;5135201;27;20367;-72
2022/06/07 07:53:14;;;;;;;3.50;1.50;;;15.60;99.90;;;;;;5135282;27;20255;-72
2022/06/07 07:55:45;;;;;;;0.80;0.75;;;15.70;99.90;;;;;;5135165;27;20191;-71
2022/06/07 07:58:11;;;;;;;0.50;0.50;;;15.80;99.90;;;;;;5135141;27;20211;-72
2022/06/07 08:00:41;;;;;;;0.60;0.60;;;16.00;99.90;;;;;;5134962;27;20197;-72
2022/06/07 08:03:06;;;;;;;0.25;0.25;;;16.10;99.90;;;;;;5116674;27;20566;-72
2022/06/07 08:05:32;;;;;;;0.75;0.73;;;16.20;99.90;;;;;;5135033;27;20194;-71
2022/06/07 08:07:58;;;;;;;0.50;0.50;;;16.30;99.90;;;;;;5135092;27;20186;-72
2022/06/07 08:10:24;;;;;;;0.50;0.50;;;16.30;99.90;;;;;;5134818;27;20193;-73
2022/06/07 08:12:50;;;;;;;0.40;0.40;;;16.20;99.90;;;;;;5135019;27;20559;-73
2022/06/07 08:15:16;;;;;;;0.60;0.60;;;16.20;99.90;;;;;;5134948;27;20652;-73
2022/06/07 08:17:43;;;;;;;0.57;0.57;;;16.20;99.90;;;;;;5153767;27;20197;-73
2022/06/07 08:20:10;;;;;;;1.38;0.55;;;16.20;99.90;;;;;;5155340;27;20664;-73
2022/06/07 08:22:36;;;;;;;2.25;0.68;;;16.20;99.90;;;;;;5155272;27;20306;-71
2022/06/07 08:25:03;;;;;;;0.80;0.80;;;16.20;99.90;;;;;;5155487;27;20192;-72
2022/06/07 08:27:29;;;;;;;0.50;0.50;;;16.30;99.90;;;;;;5155337;27;20691;-72
2022/06/07 08:29:54;;;;;;;9.63;0.95;;;16.40;99.90;;;;;;5155410;27;20179;-72
2022/06/07 08:32:20;;;;;;;0.47;0.47;;;16.70;99.90;;;;;;5155032;27;20200;-72
2022/06/07 08:37:33;;;;;;;0.30;0.30;;;17.30;99.90;;;;;;5154947;27;20565;-73
2022/06/07 08:39:59;;;;;;;0.50;0.50;;;17.60;99.90;;;;;;5136437;27;20229;-73
2022/06/07 08:42:41;;;;;;;0.63;0.63;;;17.80;99.90;;;;;;5154654;27;20201;-73
2022/06/07 08:45:12;;;;;;;0.73;0.50;;;18.10;99.90;;;;;;5136378;27;20198;-70
2022/06/07 08:47:46;;;;;;;0.50;0.50;;;18.20;99.90;;;;;;5154854;27;20197;-71
2022/06/07 08:50:21;;;;;;;0.30;0.30;;;18.30;99.90;;;;;;5117294;27;20219;-72
2022/06/07 08:52:49;;;;;;;0.60;0.60;;;18.70;99.90;;;;;;5113754;28;20195;-72
2022/06/07 08:55:24;;;;;;;0.93;0.60;;;18.80;99.90;;;;;;5113760;28;20582;-71
2022/06/07 08:57:57;;;;;;;0.40;0.40;;;19.50;99.90;;;;;;5113732;28;20198;-72
2022/06/07 09:00:29;;;;;;;0.43;0.43;;;20.30;99.90;;;;;;5113367;28;20274;-72
2022/06/07 09:03:32;;;;;;;0.45;0.40;;;20.50;99.90;;;;;;5113489;28;20290;-72
2022/06/07 09:06:01;;;;;;;0.75;0.63;;;20.60;99.90;;;;;;5113532;28;20194;-71
2022/06/07 09:08:44;;;;;;;1.23;0.45;;;20.90;99.90;;;;;;5113261;28;20603;-71
2022/06/07 09:14:11;;;;;;;0.45;0.45;;;20.10;99.90;;;;;;5113417;28;20202;-71
2022/06/07 09:16:42;;;;;;;0.60;0.60;;;19.40;99.90;;;;;;5128170;27;20202;-71
2022/06/07 09:19:16;;;;;;;0.60;0.40;;;19.20;99.90;;;;;;5133949;27;20202;-71
2022/06/07 09:21:44;;;;;;;0.68;0.60;;;19.20;99.90;;;;;;5133566;27;20607;-71
2022/06/07 09:24:32;;;;;;;0.68;0.68;;;19.30;99.90;;;;;;5132437;27;20230;-71
2022/06/07 09:27:15;;;;;;;0.75;0.50;;;19.40;99.90;;;;;;5133241;27;20210;-71
2022/06/07 09:29:42;;;;;;;0.45;0.32;;;19.30;99.90;;;;;;5133605;27;20190;-72
2022/06/07 09:32:18;;;;;;;0.30;0.30;;;19.20;99.90;;;;;;5133282;27;20206;-73
2022/06/07 09:35:00;;;;;;;0.65;0.65;;;19.10;99.90;;;;;;5132257;28;20197;-70
2022/06/07 09:37:49;;;;;;;0.50;0.50;;;19.00;99.90;;;;;;5133585;27;20282;-72
2022/06/07 09:40:29;;;;;;;0.57;0.57;;;18.90;99.90;;;;;;5132355;28;20290;-73
2022/06/07 09:43:17;;;;;;;0.50;0.50;;;18.80;99.90;;;;;;5117447;27;20203;-72
2022/06/07 09:45:57;;;;;;;0.20;0.20;;;18.70;99.90;;;;;;5113027;28;20194;-72
2022/06/07 09:48:25;;;;;;;0.50;0.50;;;18.90;99.90;;;;;;5112935;28;20191;-73
2022/06/07 09:51:06;;;;;;;0.90;0.73;;;19.00;99.90;;;;;;5131879;28;20655;-72
2022/06/07 09:53:44;;;;;;;0.30;0.30;;;19.20;99.90;;;;;;5118271;27;20648;-72
2022/06/07 09:56:29;;;;;;;0.45;0.32;;;19.20;99.90;;;;;;5137574;27;20192;-72
2022/06/07 09:59:16;;;;;;;0.47;0.47;;;19.00;99.90;;;;;;5119284;27;20190;-72
2022/06/07 10:01:56;;;;;;;0.22;0.22;;;19.00;99.90;;;;;;5137487;27;20202;-72
2022/06/07 10:04:45;;;;;;;0.25;0.25;;;19.40;99.90;;;;;;5137275;27;20555;-72
2022/06/07 10:07:19;;;;;;;0.20;0.20;;;19.90;99.90;;;;;;5137382;27;20266;-71
2022/06/07 10:09:55;;;;;;;0.40;0.40;;;20.20;99.90;;;;;;5133851;27;20537;-72
2022/06/07 10:12:43;;;;;;;1.05;0.70;;;20.70;99.90;;;;;;5139040;27;20213;-72
2022/06/07 10:15:29;;;;;;;0.30;0.30;;;22.00;99.90;;;;;;5139433;27;20246;-72
2022/06/07 10:18:13;;;;;;;1.08;0.98;;;23.00;99.90;;;;;;5157888;27;20192;-73
2022/06/07 10:21:16;;;;;;;1.48;0.70;;;23.50;99.90;;;;;;5139114;27;20193;-72
2022/06/07 10:24:19;;;;;;;0.22;0.22;;;23.60;99.90;;;;;;5157660;27;20208;-72
2022/06/07 10:26:53;;;;;;;0.68;0.68;;;23.20;99.90;;;;;;5139313;27;20193;-72
2022/06/07 10:29:38;;;;;;;0.20;0.20;;;22.70;99.90;;;;;;5157427;27;20251;-72
2022/06/07 10:32:27;;;;;;;0.20;0.20;;;22.00;99.90;;;;;;5139103;27;20205;-72
2022/06/07 10:35:15;;;;;;;0.30;0.30;;;21.40;99.90;;;;;;5157449;27;20198;-74
2022/06/07 10:38:20;;;;;;;0.40;0.40;;;21.20;99.90;;;;;;5135302;27;20190;-72
2022/06/07 10:40:46;;;;;;;0.50;0.40;;;21.10;99.90;;;;;;5136818;27;20195;-72
2022/06/07 10:43:29;;;;;;;0.40;0.40;;;20.70;99.90;;;;;;5118162;27;20203;-72
2022/06/07 10:46:00;;;;;;;0.40;0.40;;;20.60;99.90;;;;;;5118271;27;20190;-72
2022/06/07 10:48:44;;;;;;;0.30;0.30;;;20.80;99.90;;;;;;5117698;27;20202;-73
2022/06/07 10:54:21;;;;;;;0.22;0.22;;;21.40;99.90;;;;;;5136813;27;20329;-72
2022/06/07 10:57:03;;;;;;;0.38;0.38;;;22.00;99.90;;;;;;5136513;27;20197;-72
2022/06/07 10:59:30;;;;;;;0.30;0.30;;;22.40;99.90;;;;;;5136324;27;20318;-72
2022/06/07 11:02:06;;;;;;;0.22;0.22;;;22.50;99.90;;;;;;5136241;27;20299;-72
2022/06/07 11:10:35;;;;;;;0.17;0.17;;;22.90;99.90;;;;;;5157199;27;20250;-72
2022/06/07 11:13:18;;;;;;;0.45;0.43;;;23.00;99.90;;;;;;5157026;27;20572;-72
2022/06/07 11:15:59;;;;;;;0.55;0.30;;;22.50;99.90;;;;;;5156843;27;20652;-73
2022/06/07 11:18:26;;;;;;;0.50;0.28;;;22.60;99.90;;;;;;5156626;27;20277;-72
2022/06/07 11:21:01;;;;;;;0.30;0.30;;;22.60;99.90;;;;;;5156824;27;20201;-73
2022/06/07 11:23:31;;;;;;;0.40;0.40;;;22.30;99.90;;;;;;5137975;27;20566;-72
2022/06/07 11:26:03;;;;;;;0.85;0.40;;;22.20;99.90;;;;;;5156515;27;20195;-72
2022/06/07 11:28:45;;;;;;;0.40;0.40;;;22.20;99.90;;;;;;5156425;27;20190;-72
2022/06/07 11:31:43;;;;;;;0.30;0.30;;;22.30;99.90;;;;;;5156629;27;20700;-72
2022/06/07 11:34:26;;;;;;;0.43;0.43;;;22.30;99.90;;;;;;5137828;27;20194;-73
2022/06/07 11:36:56;;;;;;;0.20;0.20;;;22.70;99.90;;;;;;5156552;27;20225;-72
2022/06/07 11:39:40;;;;;;;0.50;0.50;;;22.60;99.90;;;;;;5137685;27;20194;-72
2022/06/07 11:42:17;;;;;;;0.30;0.30;;;22.90;99.90;;;;;;5156192;27;20201;-72
2022/06/07 11:44:45;;;;;;;0.70;0.70;;;23.30;99.90;;;;;;5156070;27;20188;-72
2022/06/07 11:47:11;;;;;;;0.90;0.65;;;24.10;99.90;;;;;;5156277;27;20202;-73
2022/06/07 11:49:46;;;;;;;1.05;0.85;;;25.20;99.90;;;;;;5155623;27;20711;-72
2022/06/07 11:52:11;;;;;;;0.32;0.32;;;25.10;99.90;;;;;;5137525;27;20244;-73
2022/06/07 11:55:19;;;;;;;0.35;0.35;;;24.80;99.90;;;;;;5156016;27;20198;-72
2022/06/07 11:57:54;;;;;;;4.57;1.35;;;24.80;99.90;;;;;;5142326;27;20198;-72
2022/06/07 12:00:19;;;;;;;0.30;0.30;;;24.50;99.90;;;;;;5137195;27;20194;-72
2022/06/07 12:02:57;;;;;;;0.28;0.28;;;24.40;99.90;;;;;;5137097;27;20233;-73
2022/06/07 12:05:40;;;;;;;0.30;0.30;;;24.00;99.90;;;;;;5155709;27;20732;-73
2022/06/07 12:08:28;;;;;;;0.73;0.50;;;24.10;99.90;;;;;;5155867;27;20268;-72
2022/06/07 12:11:02;;;;;;;0.38;0.38;;;24.00;99.90;;;;;;5156040;27;20250;-72
2022/06/07 12:13:52;;;;;;;0.32;0.32;;;24.20;99.90;;;;;;5155618;27;20277;-72
2022/06/07 12:16:24;;;;;;;0.50;0.50;;;24.80;99.90;;;;;;5136553;27;20201;-73
2022/06/07 12:18:55;;;;;;;0.50;0.40;;;25.40;99.90;;;;;;5155669;27;20558;-72
2022/06/07 12:21:23;;;;;;;0.60;0.60;;;25.80;99.90;;;;;;5155077;27;20732;-72
2022/06/07 12:23:52;;;;;;;0.20;0.20;;;25.60;99.90;;;;;;5155519;27;20652;-71
2022/06/07 12:26:30;;;;;;;0.22;0.22;;;25.50;99.90;;;;;;5136805;27;20599;-73
2022/06/07 12:29:12;;;;;;;0.30;0.30;;;25.60;99.90;;;;;;5136909;27;20197;-72
2022/06/07 12:31:48;;;;;;;0.95;0.68;;;25.70;99.90;;;;;;5136486;27;20227;-72
2022/06/07 12:34:37;;;;;;;0.17;0.17;;;26.40;99.90;;;;;;5136754;27;20245;-71
2022/06/07 12:37:09;;;;;;;0.47;0.47;;;27.10;99.90;;;;;;5155406;27;20597;-73
2022/06/07 12:39:50;;;;;;;0.30;0.30;;;27.10;99.90;;;;;;5155080;27;20190;-71
2022/06/07 12:42:18;;;;;;;1.40;0.68;;;26.80;99.90;;;;;;5154852;27;20270;-72
2022/06/07 12:44:56;;;;;;;13.82;0.60;;;26.50;99.90;;;;;;5136554;27;20205;-71
2022/06/07 12:47:24;;;;;;;0.73;0.40;;;25.40;99.90;;;;;;5136350;27;20222;-71
2022/06/07 12:49:50;;;;;;;0.35;0.35;;;24.60;99.90;;;;;;5142546;27;20673;-71
2022/06/07 12:52:22;;;;;;;0.35;0.35;;;24.30;99.90;;;;;;5134169;27;20269;-71
2022/06/07 12:54:55;;;;;;;0.20;0.20;;;24.30;99.90;;;;;;5134125;27;20225;-72
2022/06/07 12:57:34;;;;;;;0.40;0.40;;;24.00;99.90;;;;;;5139240;27;20668;-72
2022/06/07 13:00:19;;;;;;;1.27;0.50;;;23.80;99.90;;;;;;5136164;27;20193;-71
2022/06/07 13:02:55;;;;;;;0.60;0.60;;;23.90;99.90;;;;;;5154692;27;20261;-72
2022/06/07 13:05:36;;;;;;;0.32;0.32;;;24.20;99.90;;;;;;5154588;27;20201;-71
2022/06/07 13:08:14;;;;;;;0.43;0.43;;;24.00;99.90;;;;;;5154826;27;20572;-72
2022/06/07 13:10:40;;;;;;;0.28;0.28;;;23.50;99.90;;;;;;5154746;27;20194;-72
2022/06/07 13:13:16;;;;;;;0.28;0.28;;;23.10;99.90;;;;;;5136241;27;20314;-71
2022/06/07 13:16:11;;;;;;;0.60;0.60;;;22.80;99.90;;;;;;5154453;27;20185;-72
2022/06/07 13:18:43;;;;;;;0.20;0.20;;;22.30;99.90;;;;;;5124174;27;20272;-72
2022/06/07 13:21:23;;;;;;;0.30;0.30;;;22.20;99.90;;;;;;5115353;27;20190;-71
2022/06/07 13:23:54;;;;;;;0.30;0.30;;;22.00;99.90;;;;;;5115382;28;20425;-72
2022/06/07 13:26:25;;;;;;;0.20;0.20;;;22.00;99.90;;;;;;5135460;27;20194;-71
2022/06/07 13:29:02;;;;;;;1.42;0.82;;;22.30;99.90;;;;;;5154293;27;20219;-71
2022/06/07 13:31:51;;;;;;;0.45;0.40;;;22.50;99.90;;;;;;5154304;27;20643;-72